sensor_id;sensor_type;location;lat;lon;timestamp;pressure;altitude;pressure_sealevel;temperature;humidity
61963;BME280;47927;42.646;23.096;2023-02-10T00:00:24;93630.03;;;-6.68;51.39
61963;BME280;47927;42.646;23.096;2023-02-10T00:02:50;93633.19;;;-6.42;50.52
61963;BME280;47927;42.646;23.096;2023-02-10T00:05:15;93621.28;;;-6.30;50.03
61963;BME280;47927;42.646;23.096;2023-02-10T00:07:41;93612.78;;;-6.35;50.44
61963;BME280;47927;42.646;23.096;2023-02-10T00:10:07;93595.47;;;-6.50;49.90
61963;BME280;47927;42.646;23.096;2023-02-10T00:12:36;93618.06;;;-6.37;49.76
61963;BME280;47927;42.646;23.096;2023-02-10T00:15:04;93611.25;;;-6.36;49.99
61963;BME280;47927;42.646;23.096;2023-02-10T00:17:30;93615.00;;;-6.39;49.98
61963;BME280;47927;42.646;23.096;2023-02-10T00:19:55;93612.47;;;-6.39;49.90
61963;BME280;47927;42.646;23.096;2023-02-10T00:22:21;93614.31;;;-6.34;49.32
61963;BME280;47927;42.646;23.096;2023-02-10T00:24:46;93615.44;;;-6.30;48.68
61963;BME280;47927;42.646;23.096;2023-02-10T00:27:12;93612.34;;;-6.32;49.08
61963;BME280;47927;42.646;23.096;2023-02-10T00:29:37;93605.75;;;-6.33;49.37
61963;BME280;47927;42.646;23.096;2023-02-10T00:32:03;93600.44;;;-6.44;49.66
61963;BME280;47927;42.646;23.096;2023-02-10T00:34:28;93599.72;;;-6.74;50.57
61963;BME280;47927;42.646;23.096;2023-02-10T00:36:54;93595.19;;;-6.84;51.04
61963;BME280;47927;42.646;23.096;2023-02-10T00:39:19;93588.59;;;-6.73;50.99
61963;BME280;47927;42.646;23.096;2023-02-10T00:41:45;93591.63;;;-6.95;51.79
61963;BME280;47927;42.646;23.096;2023-02-10T00:44:11;93581.69;;;-6.66;50.97
61963;BME280;47927;42.646;23.096;2023-02-10T00:46:37;93566.09;;;-6.81;51.09
61963;BME280;47927;42.646;23.096;2023-02-10T00:49:04;93577.88;;;-6.75;51.30
61963;BME280;47927;42.646;23.096;2023-02-10T00:51:29;93576.84;;;-6.56;50.80
61963;BME280;47927;42.646;23.096;2023-02-10T00:53:56;93577.94;;;-6.52;50.80
61963;BME280;47927;42.646;23.096;2023-02-10T00:56:22;93569.13;;;-6.49;50.64
61963;BME280;47927;42.646;23.096;2023-02-10T00:58:49;93572.22;;;-6.35;51.20
61963;BME280;47927;42.646;23.096;2023-02-10T01:01:14;93563.06;;;-6.36;50.48
61963;BME280;47927;42.646;23.096;2023-02-10T01:03:40;93574.19;;;-6.26;50.46
61963;BME280;47927;42.646;23.096;2023-02-10T01:06:06;93576.97;;;-6.27;50.12
61963;BME280;47927;42.646;23.096;2023-02-10T01:08:33;93584.22;;;-6.19;49.46
61963;BME280;47927;42.646;23.096;2023-02-10T01:11:04;93590.75;;;-6.23;49.29
61963;BME280;47927;42.646;23.096;2023-02-10T01:13:30;93557.44;;;-6.38;48.78
61963;BME280;47927;42.646;23.096;2023-02-10T01:15:56;93583.44;;;-6.31;48.71
61963;BME280;47927;42.646;23.096;2023-02-10T01:18:21;93572.22;;;-6.47;49.55
61963;BME280;47927;42.646;23.096;2023-02-10T01:20:47;93576.38;;;-6.53;50.26
61963;BME280;47927;42.646;23.096;2023-02-10T01:23:13;93576.06;;;-6.45;49.53
61963;BME280;47927;42.646;23.096;2023-02-10T01:25:38;93572.22;;;-6.47;48.36
61963;BME280;47927;42.646;23.096;2023-02-10T01:28:05;93569.66;;;-6.71;48.13
61963;BME280;47927;42.646;23.096;2023-02-10T01:30:32;93563.25;;;-6.73;48.05
61963;BME280;47927;42.646;23.096;2023-02-10T01:32:58;93561.38;;;-6.78;48.27
61963;BME280;47927;42.646;23.096;2023-02-10T01:35:24;93563.56;;;-6.81;47.52
61963;BME280;47927;42.646;23.096;2023-02-10T01:37:52;93568.56;;;-7.05;49.59
61963;BME280;47927;42.646;23.096;2023-02-10T01:40:17;93540.09;;;-7.30;49.25
61963;BME280;47927;42.646;23.096;2023-02-10T01:42:43;93560.91;;;-7.28;49.64
61963;BME280;47927;42.646;23.096;2023-02-10T01:47:52;93567.25;;;-7.07;50.27
61963;BME280;47927;42.646;23.096;2023-02-10T01:50:21;93566.50;;;-6.96;49.94
61963;BME280;47927;42.646;23.096;2023-02-10T01:52:48;93564.22;;;-6.86;48.38
61963;BME280;47927;42.646;23.096;2023-02-10T01:55:19;93556.06;;;-6.88;47.72
61963;BME280;47927;42.646;23.096;2023-02-10T01:57:46;93556.06;;;-6.88;48.25
61963;BME280;47927;42.646;23.096;2023-02-10T02:00:15;93551.66;;;-6.93;49.31
61963;BME280;47927;42.646;23.096;2023-02-10T02:02:43;93556.16;;;-6.95;49.73
61963;BME280;47927;42.646;23.096;2023-02-10T02:05:30;93550.84;;;-7.05;49.06
61963;BME280;47927;42.646;23.096;2023-02-10T02:07:58;93551.84;;;-7.36;50.13
61963;BME280;47927;42.646;23.096;2023-02-10T02:10:33;93547.16;;;-7.21;50.55
61963;BME280;47927;42.646;23.096;2023-02-10T02:13:10;93526.00;;;-7.26;47.99
61963;BME280;47927;42.646;23.096;2023-02-10T02:22:22;93547.31;;;-7.04;49.68
61963;BME280;47927;42.646;23.096;2023-02-10T02:32:47;93543.16;;;-7.40;50.13
61963;BME280;47927;42.646;23.096;2023-02-10T02:35:23;93531.50;;;-7.29;50.40
61963;BME280;47927;42.646;23.096;2023-02-10T02:37:52;93539.31;;;-7.31;50.52
61963;BME280;47927;42.646;23.096;2023-02-10T02:40:19;93542.53;;;-7.24;50.68
61963;BME280;47927;42.646;23.096;2023-02-10T02:42:45;93539.56;;;-7.21;50.11
61963;BME280;47927;42.646;23.096;2023-02-10T06:43:37;93583.38;;;10.98;22.26
61963;BME280;47927;42.646;23.096;2023-02-10T06:46:03;93587.53;;;11.63;20.82
61963;BME280;47927;42.646;23.096;2023-02-10T06:48:29;93591.22;;;12.03;20.64
61963;BME280;47927;42.646;23.096;2023-02-10T06:50:55;93589.66;;;12.14;20.79
61963;BME280;47927;42.646;23.096;2023-02-10T06:53:21;93588.03;;;12.38;20.25
61963;BME280;47927;42.646;23.096;2023-02-10T06:55:46;93598.16;;;13.03;19.62
61963;BME280;47927;42.646;23.096;2023-02-10T06:58:12;93602.13;;;13.63;18.89
61963;BME280;47927;42.646;23.096;2023-02-10T07:00:38;93604.00;;;13.82;18.69
61963;BME280;47927;42.646;23.096;2023-02-10T07:03:03;93604.03;;;14.02;18.70
61963;BME280;47927;42.646;23.096;2023-02-10T07:05:29;93601.22;;;14.53;17.85
61963;BME280;47927;42.646;23.096;2023-02-10T07:07:56;93609.03;;;14.30;18.19
61963;BME280;47927;42.646;23.096;2023-02-10T07:10:25;93606.03;;;14.51;17.91
61963;BME280;47927;42.646;23.096;2023-02-10T07:12:50;93582.69;;;15.38;16.87
61963;BME280;47927;42.646;23.096;2023-02-10T07:15:17;93602.75;;;15.00;17.41
61963;BME280;47927;42.646;23.096;2023-02-10T07:17:44;93595.03;;;15.37;17.05
61963;BME280;47927;42.646;23.096;2023-02-10T07:20:10;93599.38;;;15.53;17.22
61963;BME280;47927;42.646;23.096;2023-02-10T07:22:36;93598.69;;;15.56;17.42
61963;BME280;47927;42.646;23.096;2023-02-10T07:25:02;93600.88;;;15.77;16.93
61963;BME280;47927;42.646;23.096;2023-02-10T07:27:28;93597.94;;;15.85;16.48
61963;BME280;47927;42.646;23.096;2023-02-10T07:29:54;93598.03;;;15.36;17.06
61963;BME280;47927;42.646;23.096;2023-02-10T07:32:19;93599.06;;;15.04;17.42
61963;BME280;47927;42.646;23.096;2023-02-10T07:34:45;93601.63;;;15.24;17.32
61963;BME280;47927;42.646;23.096;2023-02-10T07:37:11;93592.50;;;15.41;17.08
61963;BME280;47927;42.646;23.096;2023-02-10T07:39:37;93600.75;;;15.43;17.03
61963;BME280;47927;42.646;23.096;2023-02-10T07:42:02;93599.75;;;14.13;17.69
61963;BME280;47927;42.646;23.096;2023-02-10T07:44:38;93593.13;;;14.19;18.05
61963;BME280;47927;42.646;23.096;2023-02-10T07:47:05;93596.69;;;13.72;18.58
61963;BME280;47927;42.646;23.096;2023-02-10T07:49:30;93598.44;;;14.03;18.52
61963;BME280;47927;42.646;23.096;2023-02-10T07:51:56;93608.88;;;14.42;18.33
61963;BME280;47927;42.646;23.096;2023-02-10T07:54:21;93604.44;;;14.66;18.12
61963;BME280;47927;42.646;23.096;2023-02-10T07:56:47;93597.09;;;14.75;18.10
61963;BME280;47927;42.646;23.096;2023-02-10T07:59:12;93597.81;;;15.21;16.94
61963;BME280;47927;42.646;23.096;2023-02-10T08:01:40;93601.06;;;15.11;17.49
61963;BME280;47927;42.646;23.096;2023-02-10T08:04:09;93595.97;;;15.75;17.27
61963;BME280;47927;42.646;23.096;2023-02-10T08:06:35;93595.13;;;15.41;17.49
61963;BME280;47927;42.646;23.096;2023-02-10T08:09:00;93599.38;;;15.79;17.55
61963;BME280;47927;42.646;23.096;2023-02-10T08:11:26;93592.00;;;16.22;16.85
61963;BME280;47927;42.646;23.096;2023-02-10T08:13:51;93605.72;;;16.79;16.16
61963;BME280;47927;42.646;23.096;2023-02-10T08:16:17;93597.28;;;15.35;17.88
61963;BME280;47927;42.646;23.096;2023-02-10T08:18:42;93592.56;;;15.48;17.71
61963;BME280;47927;42.646;23.096;2023-02-10T08:21:08;93590.81;;;15.56;17.36
61963;BME280;47927;42.646;23.096;2023-02-10T08:23:34;93598.81;;;15.66;17.76
61963;BME280;47927;42.646;23.096;2023-02-10T08:26:09;93594.25;;;16.61;17.15
61963;BME280;47927;42.646;23.096;2023-02-10T08:28:36;93602.41;;;16.49;16.48
61963;BME280;47927;42.646;23.096;2023-02-10T08:31:04;93591.53;;;16.50;16.77
61963;BME280;47927;42.646;23.096;2023-02-10T08:33:30;93596.06;;;16.16;17.60
61963;BME280;47927;42.646;23.096;2023-02-10T08:36:03;93598.06;;;15.92;17.38
61963;BME280;47927;42.646;23.096;2023-02-10T08:38:29;93603.94;;;15.56;18.03
61963;BME280;47927;42.646;23.096;2023-02-10T08:40:56;93589.19;;;15.47;18.33
61963;BME280;47927;42.646;23.096;2023-02-10T08:43:21;93598.50;;;16.35;17.86
61963;BME280;47927;42.646;23.096;2023-02-10T08:45:47;93596.06;;;16.53;17.58
61963;BME280;47927;42.646;23.096;2023-02-10T08:48:12;93603.84;;;16.39;17.47
61963;BME280;47927;42.646;23.096;2023-02-10T08:50:38;93602.47;;;16.18;17.92
61963;BME280;47927;42.646;23.096;2023-02-10T08:53:03;93592.97;;;16.44;17.34
61963;BME280;47927;42.646;23.096;2023-02-10T08:55:29;93594.00;;;15.99;18.01
61963;BME280;47927;42.646;23.096;2023-02-10T08:57:54;93598.19;;;16.03;17.30
61963;BME280;47927;42.646;23.096;2023-02-10T09:00:20;93594.13;;;16.47;17.26
61963;BME280;47927;42.646;23.096;2023-02-10T09:02:48;93601.69;;;15.58;17.41
61963;BME280;47927;42.646;23.096;2023-02-10T09:05:14;93587.50;;;15.62;17.59
61963;BME280;47927;42.646;23.096;2023-02-10T09:07:40;93590.47;;;15.87;17.57
61963;BME280;47927;42.646;23.096;2023-02-10T09:10:07;93585.94;;;15.58;18.04
61963;BME280;47927;42.646;23.096;2023-02-10T09:12:36;93594.03;;;15.72;17.75
61963;BME280;47927;42.646;23.096;2023-02-10T09:15:02;93581.47;;;16.22;17.51
61963;BME280;47927;42.646;23.096;2023-02-10T09:17:29;93588.44;;;15.74;18.05
61963;BME280;47927;42.646;23.096;2023-02-10T09:19:54;93590.31;;;16.40;17.55
61963;BME280;47927;42.646;23.096;2023-02-10T09:22:20;93582.91;;;16.53;17.43
61963;BME280;47927;42.646;23.096;2023-02-10T09:24:45;93592.63;;;16.12;17.38
61963;BME280;47927;42.646;23.096;2023-02-10T09:27:15;93587.81;;;15.57;18.47
61963;BME280;47927;42.646;23.096;2023-02-10T09:29:41;93583.38;;;15.35;18.00
61963;BME280;47927;42.646;23.096;2023-02-10T09:32:06;93563.84;;;15.32;18.72
61963;BME280;47927;42.646;23.096;2023-02-10T09:34:32;93581.81;;;15.30;18.27
61963;BME280;47927;42.646;23.096;2023-02-10T09:36:57;93577.38;;;15.34;18.09
61963;BME280;47927;42.646;23.096;2023-02-10T09:39:27;93580.56;;;15.74;18.06
61963;BME280;47927;42.646;23.096;2023-02-10T09:42:08;93581.69;;;15.76;17.55
61963;BME280;47927;42.646;23.096;2023-02-10T09:44:38;93580.69;;;15.31;18.50
61963;BME280;47927;42.646;23.096;2023-02-10T09:56:16;93574.88;;;14.92;18.86
61963;BME280;47927;42.646;23.096;2023-02-10T10:00:47;93570.75;;;14.91;18.75
61963;BME280;47927;42.646;23.096;2023-02-10T10:03:19;93565.56;;;15.21;18.25
61963;BME280;47927;42.646;23.096;2023-02-10T10:08:29;93563.13;;;14.82;19.35
61963;BME280;47927;42.646;23.096;2023-02-10T10:11:08;93556.31;;;14.35;19.04
61963;BME280;47927;42.646;23.096;2023-02-10T10:13:37;93554.72;;;14.07;20.12
61963;BME280;47927;42.646;23.096;2023-02-10T10:18:48;93550.06;;;13.07;21.15
61963;BME280;47927;42.646;23.096;2023-02-10T10:26:59;93541.16;;;12.45;22.23
61963;BME280;47927;42.646;23.096;2023-02-10T10:32:07;93536.34;;;10.69;25.66
61963;BME280;47927;42.646;23.096;2023-02-10T10:34:39;93513.63;;;11.47;24.44
61963;BME280;47927;42.646;23.096;2023-02-10T10:37:15;93531.47;;;11.33;24.58
61963;BME280;47927;42.646;23.096;2023-02-10T10:39:44;93534.69;;;11.14;24.44
61963;BME280;47927;42.646;23.096;2023-02-10T10:42:22;93531.50;;;11.21;24.68
61963;BME280;47927;42.646;23.096;2023-02-10T10:44:50;93534.69;;;11.02;24.66
61963;BME280;47927;42.646;23.096;2023-02-10T10:47:31;93530.25;;;10.08;25.70
61963;BME280;47927;42.646;23.096;2023-02-10T10:50:01;93530.41;;;9.90;26.27
61963;BME280;47927;42.646;23.096;2023-02-10T10:52:34;93520.94;;;10.19;25.85
61963;BME280;47927;42.646;23.096;2023-02-10T10:55:08;93519.00;;;9.82;26.10
61963;BME280;47927;42.646;23.096;2023-02-10T10:57:56;93510.13;;;9.84;25.31
61963;BME280;47927;42.646;23.096;2023-02-10T11:00:27;93505.91;;;9.91;24.89
61963;BME280;47927;42.646;23.096;2023-02-10T11:03:04;93507.34;;;9.34;26.72
61963;BME280;47927;42.646;23.096;2023-02-10T11:05:32;93512.53;;;9.34;26.67
61963;BME280;47927;42.646;23.096;2023-02-10T11:07:59;93508.72;;;9.86;26.00
61963;BME280;47927;42.646;23.096;2023-02-10T11:11:02;93507.84;;;8.48;26.86
61963;BME280;47927;42.646;23.096;2023-02-10T11:13:31;93502.78;;;8.13;28.28
61963;BME280;47927;42.646;23.096;2023-02-10T11:16:06;93511.06;;;7.89;28.04
61963;BME280;47927;42.646;23.096;2023-02-10T11:18:33;93499.75;;;8.49;27.40
61963;BME280;47927;42.646;23.096;2023-02-10T11:21:05;93494.19;;;8.59;26.86
61963;BME280;47927;42.646;23.096;2023-02-10T12:24:12;93434.84;;;5.71;30.70
61963;BME280;47927;42.646;23.096;2023-02-10T12:34:22;93433.72;;;5.55;32.49
61963;BME280;47927;42.646;23.096;2023-02-10T12:40:31;93432.78;;;6.96;30.26
61963;BME280;47927;42.646;23.096;2023-02-10T12:51:12;93428.91;;;7.54;29.16
61963;BME280;47927;42.646;23.096;2023-02-10T12:53:49;93417.25;;;7.69;28.59
61963;BME280;47927;42.646;23.096;2023-02-10T12:56:29;93425.56;;;7.37;28.68
61963;BME280;47927;42.646;23.096;2023-02-10T12:59:05;93427.44;;;7.19;29.64
61963;BME280;47927;42.646;23.096;2023-02-10T13:01:59;93420.72;;;7.26;29.04
61963;BME280;47927;42.646;23.096;2023-02-10T13:04:31;93419.50;;;7.15;29.14
61963;BME280;47927;42.646;23.096;2023-02-10T13:07:01;93424.06;;;7.10;28.96
61963;BME280;47927;42.646;23.096;2023-02-10T13:09:39;93430.63;;;7.16;29.23
61963;BME280;47927;42.646;23.096;2023-02-10T13:14:49;93416.00;;;7.02;29.48
61963;BME280;47927;42.646;23.096;2023-02-10T13:17:16;93430.63;;;6.98;29.23
61963;BME280;47927;42.646;23.096;2023-02-10T13:29:10;93432.88;;;6.56;29.82
61963;BME280;47927;42.646;23.096;2023-02-10T13:34:45;93425.75;;;6.05;29.48
61963;BME280;47927;42.646;23.096;2023-02-10T13:37:43;93431.00;;;5.91;30.44
61963;BME280;47927;42.646;23.096;2023-02-10T13:47:28;93427.63;;;5.51;30.23
61963;BME280;47927;42.646;23.096;2023-02-10T13:49:59;93427.59;;;5.42;29.96
61963;BME280;47927;42.646;23.096;2023-02-10T13:52:28;93408.97;;;5.31;30.23
61963;BME280;47927;42.646;23.096;2023-02-10T13:55:01;93432.75;;;4.61;30.40
61963;BME280;47927;42.646;23.096;2023-02-10T13:57:33;93436.72;;;4.80;30.52
61963;BME280;47927;42.646;23.096;2023-02-10T14:00:18;93437.34;;;5.00;30.35
61963;BME280;47927;42.646;23.096;2023-02-10T14:02:57;93450.63;;;4.71;31.03
61963;BME280;47927;42.646;23.096;2023-02-10T14:05:34;93445.03;;;4.77;30.68
61963;BME280;47927;42.646;23.096;2023-02-10T14:08:00;93421.75;;;4.55;30.67
61963;BME280;47927;42.646;23.096;2023-02-10T14:10:37;93440.63;;;4.55;31.13
61963;BME280;47927;42.646;23.096;2023-02-10T14:13:26;93435.53;;;4.64;30.60
61963;BME280;47927;42.646;23.096;2023-02-10T14:16:00;93446.94;;;4.22;31.00
61963;BME280;47927;42.646;23.096;2023-02-10T14:18:29;93445.91;;;4.09;31.26
61963;BME280;47927;42.646;23.096;2023-02-10T14:21:04;93438.44;;;3.94;30.84
61963;BME280;47927;42.646;23.096;2023-02-10T14:23:32;93448.09;;;4.16;31.25
61963;BME280;47927;42.646;23.096;2023-02-10T14:26:04;93436.63;;;3.80;31.49
61963;BME280;47927;42.646;23.096;2023-02-10T14:28:37;93443.50;;;3.85;31.47
61963;BME280;47927;42.646;23.096;2023-02-10T14:31:11;93422.97;;;4.21;30.98
61963;BME280;47927;42.646;23.096;2023-02-10T14:33:38;93434.81;;;4.22;31.27
61963;BME280;47927;42.646;23.096;2023-02-10T14:36:14;93437.97;;;3.92;31.28
61963;BME280;47927;42.646;23.096;2023-02-10T14:38:43;93436.72;;;4.44;30.59
61963;BME280;47927;42.646;23.096;2023-02-10T14:41:12;93434.78;;;4.50;31.10
61963;BME280;47927;42.646;23.096;2023-02-10T14:43:38;93436.47;;;4.54;31.08
61963;BME280;47927;42.646;23.096;2023-02-10T14:46:04;93422.41;;;4.74;30.47
61963;BME280;47927;42.646;23.096;2023-02-10T14:48:30;93430.22;;;4.83;31.00
61963;BME280;47927;42.646;23.096;2023-02-10T14:51:07;93434.38;;;4.70;30.92
61963;BME280;47927;42.646;23.096;2023-02-10T14:53:43;93422.97;;;4.35;31.61
61963;BME280;47927;42.646;23.096;2023-02-10T14:56:22;93437.19;;;4.46;31.01
61963;BME280;47927;42.646;23.096;2023-02-10T14:58:48;93427.16;;;4.31;31.11
61963;BME280;47927;42.646;23.096;2023-02-10T15:01:26;93439.69;;;4.24;31.29
61963;BME280;47927;42.646;23.096;2023-02-10T15:03:55;93440.84;;;4.18;31.76
61963;BME280;47927;42.646;23.096;2023-02-10T15:06:25;93436.44;;;4.04;31.70
61963;BME280;47927;42.646;23.096;2023-02-10T15:08:55;93444.94;;;4.19;31.43
61963;BME280;47927;42.646;23.096;2023-02-10T15:11:23;93444.56;;;3.98;32.04
61963;BME280;47927;42.646;23.096;2023-02-10T16:56:26;93504.88;;;0.26;39.27
61963;BME280;47927;42.646;23.096;2023-02-10T16:58:53;93515.13;;;0.31;39.55
61963;BME280;47927;42.646;23.096;2023-02-10T17:01:18;93519.03;;;0.18;39.98
61963;BME280;47927;42.646;23.096;2023-02-10T17:03:44;93519.84;;;-0.07;40.32
61963;BME280;47927;42.646;23.096;2023-02-10T17:06:16;93517.59;;;-0.24;41.06
61963;BME280;47927;42.646;23.096;2023-02-10T17:08:42;93523.97;;;-0.31;40.72
61963;BME280;47927;42.646;23.096;2023-02-10T17:11:07;93518.56;;;0.06;39.84
61963;BME280;47927;42.646;23.096;2023-02-10T17:13:34;93512.88;;;0.19;39.64
61963;BME280;47927;42.646;23.096;2023-02-10T17:16:00;93521.53;;;0.29;39.21
61963;BME280;47927;42.646;23.096;2023-02-10T17:18:26;93522.88;;;0.16;39.09
61963;BME280;47927;42.646;23.096;2023-02-10T17:20:52;93527.22;;;0.15;38.80
61963;BME280;47927;42.646;23.096;2023-02-10T17:23:17;93532.06;;;0.27;38.13
61963;BME280;47927;42.646;23.096;2023-02-10T17:25:43;93528.94;;;0.40;37.67
61963;BME280;47927;42.646;23.096;2023-02-10T17:28:09;93531.72;;;0.54;36.91
61963;BME280;47927;42.646;23.096;2023-02-10T17:30:35;93534.44;;;0.73;36.74
61963;BME280;47927;42.646;23.096;2023-02-10T17:33:03;93533.94;;;0.71;36.49
61963;BME280;47927;42.646;23.096;2023-02-10T17:35:29;93538.13;;;0.57;37.64
61963;BME280;47927;42.646;23.096;2023-02-10T17:37:56;93535.34;;;0.48;37.57
61963;BME280;47927;42.646;23.096;2023-02-10T17:40:43;93536.16;;;0.33;39.07
61963;BME280;47927;42.646;23.096;2023-02-10T17:43:09;93520.31;;;0.06;39.70
61963;BME280;47927;42.646;23.096;2023-02-10T17:45:37;93540.81;;;0.16;39.80
61963;BME280;47927;42.646;23.096;2023-02-10T17:48:03;93514.75;;;-0.17;39.28
61963;BME280;47927;42.646;23.096;2023-02-10T17:50:33;93546.25;;;-0.11;39.26
61963;BME280;47927;42.646;23.096;2023-02-10T17:52:59;93539.59;;;-0.17;39.15
61963;BME280;47927;42.646;23.096;2023-02-10T17:55:25;93548.03;;;-0.22;39.36
61963;BME280;47927;42.646;23.096;2023-02-10T17:57:50;93540.09;;;-0.31;38.81
